Pawleys Island, South Carolina
Current Conditions -  °F | °C
As of 8:45 PM on Monday 24 Nov 2014 (Local Time) from KMYR Reporting Station
Overcast Overcast  
Wind Chill: 66°   Ceiling: 6500
Heat Index: 66°   Visibility: 7mi
Dew Point: 63°   Wind: 6mph
Humidity: 88%   Direction: 180°S
Pressure: 29.96"   Gusts: NA
Location:  33.43°N, 79.12°W
Report Text: KMYR 250145Z 18005KT 7SM OVC065 19/17 A2996
Loading
Personal Weather Stations






























Interactive Weather Map New forecast layout! Learn more

10-Day Weather Forecast

Advertisements
Track Severe Weather on mobile